map of SPU home
SPU - Airport
Location
City:  Split, Sibenk-Knin, Croatia
Name:Kastel
ICAO:LDSP
IATA:SPU

Details
Type:Airport (Aerodrome, Airfield)
Use:Public/Civil, International (customs port of entry)
Latitude:4332'20"N (43.538944)
Longitude:1617'53"E (16.297964)
Datum:WGS 1984
Elevation:79 ft (24 m)
Variation:4.11E (WMM2015v2 magnetic declination)
0.13 annual change
Runways:1
Longest:8366 × 148 ft (2550 × 45 m), paved

Time
Time Zone:UTC+1 (DST+2)
Local Time:

Weather
METAR:LDSP 041400Z 04012KT 010V080 9999 FEW050 11/M00 Q1019 TEMPO 02015G28KT
TAF:LDSP 041125Z 0412/0512 04015KT 9999 FEW060 TX15/0511Z TN07/0507Z
TEMPO 0412/0419 04018G30KT
BECMG 0420/0422 34009KT
BECMG 0510/0512 23007KT

Related Locations
Nearby:
Farthest:CHT: 11802 mi / 18993 km
Waitangi [Tuuta], CIT, NZ

Find:

   beyond  
but within

Other Information
Maps:
NOTAMs:
Links:
Sources:

  
  • flag of Croatia
  • flag of Sibenk-Knin
  

Sectional Chart

Flight Planning
at skyvector.com

Satellite Image

Google Maps Satellite view

 

Copyright © 2004-2019 Karl L. Swartz. All rights reserved.
The Great Circle Mapper name and logo are trademarks of the Great Circle Mapper.
All other trademarks mentioned herein belong to their respective owners.
Please see credits for attibutions and further copyright information.

  Follow gcmap on Facebook Follow gcmap on Twitter GCmap on LinkedIn

hCard Microformat

Geo Microformat